Time;durP1;ratioP1;P1;durP2;ratioP2;P2;SDS_P1;SDS_P2;PMS_P1;PMS_P2;Temp;Humidity;BMP_temperature;BMP_pressure;BME280_temperature;BME280_humidity;BME280_pressure;Samples;Min_cycle;Max_cycle;Signal;HPM_P1;HPM_P2
2022/12/18 00:01:17;;;;;;;30.40;22.10;;;-4.90;86.80;;;;;;5042040;28;20185;-82
2022/12/18 00:03:44;;;;;;;34.17;22.53;;;-4.90;86.70;;;;;;5042597;28;20216;-82
2022/12/18 00:06:10;;;;;;;29.23;22.10;;;-4.90;86.50;;;;;;5063756;28;20204;-81
2022/12/18 00:08:35;;;;;;;36.03;23.60;;;-4.90;87.10;;;;;;5068329;28;20200;-80
2022/12/18 00:11:10;;;;;;;30.20;22.70;;;-5.00;85.70;;;;;;5065076;28;20668;-83
2022/12/18 00:13:35;;;;;;;30.57;21.60;;;-5.10;87.40;;;;;;5059827;28;20207;-80
2022/12/18 00:16:06;;;;;;;29.53;22.47;;;-5.10;88.10;;;;;;5053538;28;20215;-82
2022/12/18 00:18:32;;;;;;;30.43;22.57;;;-5.00;89.00;;;;;;5047775;28;20729;-83
2022/12/18 00:21:00;;;;;;;29.20;22.20;;;-5.00;88.90;;;;;;5053910;28;20189;-82
2022/12/18 00:23:26;;;;;;;27.87;22.73;;;-5.00;88.60;;;;;;5052894;28;20262;-80
2022/12/18 00:25:52;;;;;;;28.33;21.63;;;-5.00;88.30;;;;;;5054141;28;20200;-83
2022/12/18 00:28:17;;;;;;;32.00;21.37;;;-5.00;88.30;;;;;;5048122;28;20681;-85
2022/12/18 00:30:43;;;;;;;30.93;21.43;;;-4.90;88.60;;;;;;5046425;28;20185;-80
2022/12/18 00:33:09;;;;;;;31.63;22.10;;;-4.90;88.30;;;;;;5047361;28;20288;-80
2022/12/18 00:35:34;;;;;;;35.50;22.97;;;-4.90;87.80;;;;;;5053966;28;20248;-81
2022/12/18 00:38:00;;;;;;;34.23;23.40;;;-5.00;87.20;;;;;;5060844;28;20188;-80
2022/12/18 00:40:25;;;;;;;30.13;21.20;;;-5.00;87.30;;;;;;5061343;28;20192;-81
2022/12/18 00:42:57;;;;;;;36.63;23.57;;;-5.20;87.50;;;;;;5058083;28;20200;-82
2022/12/18 00:45:27;;;;;;;35.03;24.77;;;-5.30;87.70;;;;;;5052672;28;20193;-83
2022/12/18 00:47:54;;;;;;;35.10;24.07;;;-5.30;88.30;;;;;;5050278;28;20180;-82
2022/12/18 00:50:20;;;;;;;31.27;23.73;;;-5.50;88.40;;;;;;5045744;28;20574;-81
2022/12/18 00:52:45;;;;;;;27.47;22.60;;;-5.60;89.50;;;;;;5047170;28;20235;-81
2022/12/18 00:55:11;;;;;;;27.90;21.43;;;-5.60;90.10;;;;;;5050307;28;20266;-83
2022/12/18 00:57:37;;;;;;;30.43;22.57;;;-5.60;91.10;;;;;;5035196;28;20691;-81
2022/12/18 01:00:06;;;;;;;29.90;22.03;;;-5.50;91.20;;;;;;5051821;28;20181;-80
2022/12/18 01:02:31;;;;;;;30.50;20.90;;;-5.40;90.90;;;;;;5055263;28;20212;-80
2022/12/18 01:04:57;;;;;;;28.53;22.10;;;-5.30;90.90;;;;;;5049981;28;20234;-84
2022/12/18 01:07:23;;;;;;;35.20;24.07;;;-5.20;90.50;;;;;;5052922;28;20184;-83
2022/12/18 01:09:48;;;;;;;29.67;22.10;;;-5.30;88.80;;;;;;5047652;28;20196;-82
2022/12/18 01:12:14;;;;;;;30.10;21.80;;;-5.30;89.50;;;;;;5052959;28;20184;-82
2022/12/18 01:14:40;;;;;;;31.40;21.77;;;-5.20;89.80;;;;;;5045223;28;20263;-82
2022/12/18 01:17:05;;;;;;;33.23;22.80;;;-5.20;88.40;;;;;;5052300;28;20226;-83
2022/12/18 01:19:31;;;;;;;31.90;22.47;;;-5.30;87.20;;;;;;5053786;28;20199;-81
2022/12/18 01:21:57;;;;;;;29.73;21.47;;;-5.40;87.50;;;;;;5051111;28;20294;-83
2022/12/18 01:24:23;;;;;;;27.83;20.87;;;-5.40;89.40;;;;;;5053330;28;20223;-81
2022/12/18 01:26:49;;;;;;;29.10;20.40;;;-5.50;88.60;;;;;;5056326;28;20204;-82
2022/12/18 01:29:14;;;;;;;26.30;19.57;;;-5.60;90.00;;;;;;5051354;28;20200;-82
2022/12/18 01:31:40;;;;;;;29.67;23.30;;;-5.40;90.90;;;;;;5055881;28;20189;-84
2022/12/18 01:34:06;;;;;;;29.43;22.60;;;-5.50;89.40;;;;;;5053582;28;20261;-82
2022/12/18 01:36:34;;;;;;;35.03;22.97;;;-5.50;90.10;;;;;;5054415;28;20220;-82
2022/12/18 01:39:04;;;;;;;32.23;21.60;;;-5.60;90.60;;;;;;5048266;28;20239;-82
2022/12/18 01:44:55;;;;;;;29.07;21.60;;;-5.60;90.00;;;;;;5051433;28;20220;-82
2022/12/18 01:47:43;;;;;;;30.90;21.93;;;-5.60;91.30;;;;;;5047467;28;20242;-82
2022/12/18 01:50:21;;;;;;;28.27;21.80;;;-5.50;91.30;;;;;;5053470;28;20196;-84
2022/12/18 01:53:14;;;;;;;31.87;22.23;;;-5.50;91.60;;;;;;5056792;28;20189;-82
2022/12/18 01:55:45;;;;;;;28.93;22.00;;;-5.50;90.50;;;;;;5033142;28;20255;-82
2022/12/18 01:58:10;;;;;;;34.70;23.17;;;-5.50;90.20;;;;;;5045908;28;20685;-82
2022/12/18 02:00:36;;;;;;;27.87;20.60;;;-5.50;91.10;;;;;;5051940;28;20188;-82
2022/12/18 02:03:02;;;;;;;33.90;23.33;;;-5.40;91.60;;;;;;5051817;28;20196;-82
2022/12/18 02:05:55;;;;;;;30.13;21.83;;;-5.40;90.80;;;;;;5045253;28;20216;-84
2022/12/18 02:08:36;;;;;;;36.73;23.03;;;-5.40;90.60;;;;;;5051159;28;20196;-82
2022/12/18 02:11:17;;;;;;;28.60;22.43;;;-5.40;90.00;;;;;;5053443;28;20187;-82
2022/12/18 02:14:30;;;;;;;26.27;22.17;;;-5.40;90.20;;;;;;5050903;28;20239;-83
2022/12/18 02:17:09;;;;;;;29.90;22.40;;;-5.30;90.50;;;;;;4971586;28;20270;-82
2022/12/18 02:19:57;;;;;;;30.80;22.37;;;-5.30;89.90;;;;;;5057557;28;20196;-82
2022/12/18 02:23:01;;;;;;;29.77;21.73;;;-5.30;89.80;;;;;;5005762;28;20303;-82
2022/12/18 02:25:40;;;;;;;29.50;21.03;;;-5.40;90.20;;;;;;5057007;28;20199;-81
2022/12/18 02:28:11;;;;;;;28.17;21.53;;;-5.30;90.80;;;;;;5050589;28;20190;-83
2022/12/18 02:30:39;;;;;;;35.20;23.23;;;-5.20;90.20;;;;;;5049428;28;20173;-81
2022/12/18 02:33:07;;;;;;;35.33;22.30;;;-5.30;89.00;;;;;;5047389;28;20176;-82
2022/12/18 02:35:33;;;;;;;30.73;21.20;;;-5.30;88.80;;;;;;5053495;28;20199;-83
2022/12/18 02:38:00;;;;;;;29.13;21.07;;;-5.30;88.90;;;;;;5048946;28;20192;-81
2022/12/18 02:40:28;;;;;;;34.07;21.97;;;-5.30;88.20;;;;;;5053168;28;20194;-83
2022/12/18 02:42:54;;;;;;;27.37;22.03;;;-5.30;88.20;;;;;;5053668;28;20207;-81
2022/12/18 02:45:19;;;;;;;30.07;21.63;;;-5.20;87.60;;;;;;5052993;28;20216;-82
2022/12/18 02:47:49;;;;;;;28.50;20.93;;;-5.20;85.80;;;;;;5052090;28;20822;-83
2022/12/18 02:51:01;;;;;;;29.33;20.07;;;-5.30;86.00;;;;;;5055621;28;20176;-81
2022/12/18 02:53:39;;;;;;;32.63;23.37;;;-5.20;86.00;;;;;;5002403;28;20252;-81
2022/12/18 02:56:09;;;;;;;34.93;23.80;;;-5.30;85.70;;;;;;5060869;28;20365;-83
2022/12/18 02:59:04;;;;;;;32.13;22.47;;;-5.40;86.90;;;;;;5052193;28;20189;-82
2022/12/18 03:01:35;;;;;;;30.87;22.17;;;-5.30;87.40;;;;;;5054575;28;20199;-82
2022/12/18 03:04:11;;;;;;;31.13;22.73;;;-5.20;86.60;;;;;;5051243;28;20236;-84
2022/12/18 03:06:42;;;;;;;36.67;22.67;;;-5.30;85.60;;;;;;5051341;28;20703;-81
2022/12/18 03:09:12;;;;;;;31.57;22.80;;;-5.20;85.60;;;;;;5054572;28;20263;-81
2022/12/18 03:14:29;;;;;;;31.10;22.03;;;-5.30;85.30;;;;;;5052853;28;20227;-81
2022/12/18 03:16:59;;;;;;;33.50;23.77;;;-5.30;85.40;;;;;;5053296;28;20215;-82
2022/12/18 03:19:29;;;;;;;35.90;23.40;;;-5.30;85.00;;;;;;5056306;28;20197;-81
2022/12/18 03:21:57;;;;;;;34.27;23.40;;;-5.30;84.10;;;;;;5057067;28;20193;-82
2022/12/18 03:24:25;;;;;;;35.10;22.60;;;-5.30;82.50;;;;;;5045982;28;20310;-83
2022/12/18 03:26:54;;;;;;;30.87;23.43;;;-5.40;82.80;;;;;;5056710;28;20233;-83
2022/12/18 03:29:42;;;;;;;34.00;21.77;;;-5.50;83.80;;;;;;5038919;28;20188;-82
2022/12/18 03:32:30;;;;;;;31.20;23.00;;;-5.50;83.70;;;;;;5052856;28;20192;-81
2022/12/18 03:35:01;;;;;;;34.40;23.70;;;-5.50;83.10;;;;;;5058073;28;20661;-81
2022/12/18 03:37:27;;;;;;;29.57;22.13;;;-5.40;83.70;;;;;;5054347;28;20193;-81
2022/12/18 03:39:52;;;;;;;35.50;23.30;;;-5.50;83.10;;;;;;5060666;28;20199;-82
2022/12/18 03:42:42;;;;;;;34.70;22.53;;;-5.50;82.90;;;;;;5058680;28;20192;-83
2022/12/18 03:45:28;;;;;;;33.03;22.20;;;-5.50;82.90;;;;;;5031313;28;20439;-81
2022/12/18 03:48:18;;;;;;;33.77;22.20;;;-5.50;82.90;;;;;;5033526;28;20195;-82
2022/12/18 03:50:59;;;;;;;33.50;22.30;;;-5.50;82.50;;;;;;5069060;28;20286;-84
2022/12/18 03:54:00;;;;;;;26.80;21.30;;;-5.50;82.80;;;;;;5059247;28;20189;-82
2022/12/18 03:56:29;;;;;;;32.17;23.70;;;-5.50;82.70;;;;;;5059010;28;20694;-83
2022/12/18 03:58:58;;;;;;;35.50;24.30;;;-5.60;80.90;;;;;;5056908;28;20193;-81
2022/12/18 04:01:31;;;;;;;31.63;23.27;;;-5.80;79.70;;;;;;5037774;28;20197;-82
2022/12/18 04:04:00;;;;;;;33.43;23.43;;;-5.80;82.80;;;;;;5060099;28;20200;-81
2022/12/18 04:06:26;;;;;;;30.07;22.33;;;-5.80;84.20;;;;;;5060810;28;20212;-81
2022/12/18 04:08:52;;;;;;;35.40;22.77;;;-5.80;84.60;;;;;;5070146;28;20203;-85
2022/12/18 04:11:18;;;;;;;34.83;22.27;;;-5.70;83.90;;;;;;5075858;28;20192;-83
2022/12/18 04:13:44;;;;;;;32.83;21.87;;;-5.70;84.40;;;;;;5058357;28;20236;-83
2022/12/18 04:16:10;;;;;;;33.17;22.60;;;-5.70;83.80;;;;;;5065008;28;20205;-83
2022/12/18 04:18:36;;;;;;;33.90;23.00;;;-5.70;83.00;;;;;;5067803;28;20184;-85
2022/12/18 04:21:02;;;;;;;33.80;23.30;;;-5.70;82.90;;;;;;5065078;28;20192;-84
2022/12/18 04:23:28;;;;;;;29.07;21.13;;;-5.70;83.00;;;;;;5051932;28;20299;-82
2022/12/18 04:25:54;;;;;;;33.50;23.07;;;-5.60;83.20;;;;;;5065018;28;20185;-83
2022/12/18 04:28:20;;;;;;;36.63;23.30;;;-5.60;83.10;;;;;;5064808;28;20197;-83
2022/12/18 04:30:48;;;;;;;33.07;23.67;;;-5.60;82.50;;;;;;5068322;28;20682;-83
2022/12/18 04:33:16;;;;;;;35.33;23.57;;;-5.70;82.50;;;;;;5048264;28;20213;-81
2022/12/18 04:35:43;;;;;;;32.03;22.07;;;-5.60;82.40;;;;;;5050718;28;20311;-81
2022/12/18 04:38:12;;;;;;;31.27;22.03;;;-5.70;81.10;;;;;;5037019;28;20196;-79
2022/12/18 04:40:38;;;;;;;34.10;22.33;;;-5.70;81.50;;;;;;5054603;28;20284;-82
2022/12/18 04:43:04;;;;;;;32.77;22.77;;;-5.70;82.70;;;;;;5045078;28;20216;-82
2022/12/18 04:45:31;;;;;;;35.40;24.00;;;-5.60;83.00;;;;;;5048178;28;20708;-82
2022/12/18 04:48:01;;;;;;;30.37;22.80;;;-5.70;82.30;;;;;;5050769;28;20185;-82
2022/12/18 04:50:27;;;;;;;29.87;22.83;;;-5.70;83.30;;;;;;5051581;28;20220;-83
2022/12/18 04:52:53;;;;;;;36.20;23.43;;;-5.70;84.00;;;;;;5054603;28;20250;-82
2022/12/18 04:55:19;;;;;;;30.93;22.10;;;-5.70;85.00;;;;;;5052188;28;20528;-82
2022/12/18 04:57:44;;;;;;;34.33;23.77;;;-5.60;85.90;;;;;;5057115;28;20207;-83
2022/12/18 05:00:11;;;;;;;33.40;23.33;;;-5.50;86.50;;;;;;5036049;28;20249;-84
2022/12/18 05:02:36;;;;;;;29.53;22.20;;;-5.60;83.80;;;;;;5052909;28;20243;-83
2022/12/18 05:05:03;;;;;;;31.83;21.53;;;-5.70;83.80;;;;;;5058480;28;20196;-83
2022/12/18 05:07:29;;;;;;;31.33;21.93;;;-5.70;84.90;;;;;;5061063;28;20220;-81
2022/12/18 05:09:54;;;;;;;36.33;24.87;;;-5.70;85.60;;;;;;5064744;28;20188;-84
2022/12/18 05:12:23;;;;;;;32.33;23.10;;;-5.50;86.80;;;;;;5059002;28;20168;-81
2022/12/18 05:14:48;;;;;;;31.70;21.83;;;-5.50;86.70;;;;;;5053563;28;20272;-83
2022/12/18 05:17:14;;;;;;;34.10;22.87;;;-5.40;86.50;;;;;;5050756;28;20209;-82
2022/12/18 05:19:39;;;;;;;31.70;22.27;;;-5.40;86.40;;;;;;5045568;28;20193;-81
2022/12/18 05:22:08;;;;;;;31.60;23.60;;;-5.40;86.80;;;;;;5046401;28;20189;-83
2022/12/18 05:24:34;;;;;;;31.90;22.30;;;-5.40;88.40;;;;;;5052449;28;20223;-83
2022/12/18 05:27:00;;;;;;;33.77;22.40;;;-5.50;88.60;;;;;;5050701;28;20255;-84
2022/12/18 05:29:26;;;;;;;32.67;21.40;;;-5.40;89.50;;;;;;5056540;28;20195;-82
2022/12/18 05:31:51;;;;;;;35.00;23.20;;;-5.30;89.90;;;;;;5055806;28;20203;-82
2022/12/18 05:34:17;;;;;;;34.23;24.43;;;-5.30;90.50;;;;;;5057025;28;20200;-84
2022/12/18 05:36:43;;;;;;;34.87;23.43;;;-5.40;90.80;;;;;;5053336;28;20653;-80
2022/12/18 05:39:09;;;;;;;38.57;23.93;;;-5.50;92.80;;;;;;5051731;28;20266;-82
2022/12/18 05:41:34;;;;;;;35.43;23.90;;;-5.40;92.90;;;;;;5047047;28;20670;-82
2022/12/18 05:44:00;;;;;;;42.43;26.33;;;-5.50;93.00;;;;;;5054226;28;20291;-81
2022/12/18 05:46:26;;;;;;;39.97;25.67;;;-5.80;96.30;;;;;;5051125;28;20205;-84
2022/12/18 05:48:52;;;;;;;37.83;23.67;;;-5.80;97.00;;;;;;5050022;28;20184;-84
2022/12/18 05:51:19;;;;;;;37.77;24.53;;;-5.70;97.70;;;;;;5059660;28;20195;-82
2022/12/18 05:53:46;;;;;;;34.50;24.03;;;-5.60;96.80;;;;;;5048575;28;20193;-82
2022/12/18 05:56:16;;;;;;;34.13;22.97;;;-5.60;96.90;;;;;;5057641;28;20234;-82
2022/12/18 05:58:42;;;;;;;44.00;30.77;;;-5.70;97.50;;;;;;5046554;28;20197;-83
2022/12/18 06:01:15;;;;;;;37.87;23.83;;;-5.60;98.40;;;;;;5049763;28;20264;-82
2022/12/18 06:03:41;;;;;;;38.67;23.23;;;-5.60;98.70;;;;;;5050257;28;20208;-85
2022/12/18 06:06:25;;;;;;;34.50;23.40;;;-5.60;98.50;;;;;;5054613;28;20247;-84
2022/12/18 06:08:51;;;;;;;39.57;24.40;;;-5.50;98.10;;;;;;5029136;28;20193;-83
2022/12/18 06:11:25;;;;;;;122.97;63.60;;;-5.50;97.60;;;;;;5051526;28;20930;-82
2022/12/18 06:13:52;;;;;;;38.63;26.07;;;-5.50;97.70;;;;;;5036446;28;20184;-82
2022/12/18 06:16:18;;;;;;;38.67;23.30;;;-5.50;98.10;;;;;;5052827;28;20358;-82
2022/12/18 06:18:43;;;;;;;72.33;50.37;;;-5.60;97.90;;;;;;5047830;28;20193;-82
2022/12/18 06:21:09;;;;;;;39.93;24.23;;;-5.70;99.90;;;;;;5049866;28;20629;-84
2022/12/18 06:23:35;;;;;;;42.00;25.43;;;-5.60;99.70;;;;;;5050336;28;20218;-82
2022/12/18 06:26:09;;;;;;;40.53;25.57;;;-5.60;99.50;;;;;;5037149;28;20212;-83
2022/12/18 06:28:34;;;;;;;36.80;24.63;;;-5.70;99.90;;;;;;5042578;28;20193;-82
2022/12/18 06:31:00;;;;;;;36.10;25.33;;;-5.90;99.90;;;;;;5049347;28;20199;-80
2022/12/18 06:33:27;;;;;;;41.07;25.23;;;-5.80;99.90;;;;;;5053016;28;20202;-83
2022/12/18 06:35:53;;;;;;;42.23;24.37;;;-5.90;99.90;;;;;;5050085;28;20254;-83
2022/12/18 06:38:19;;;;;;;41.10;25.63;;;-5.70;99.90;;;;;;5053455;28;20184;-82
2022/12/18 06:40:45;;;;;;;39.80;24.00;;;-5.80;99.90;;;;;;5051143;28;20188;-83
2022/12/18 06:43:10;;;;;;;39.60;23.67;;;-5.90;99.90;;;;;;5054682;28;20203;-83
2022/12/18 06:45:36;;;;;;;42.10;24.67;;;-5.90;99.90;;;;;;5057405;28;20201;-82
2022/12/18 06:48:01;;;;;;;40.47;27.00;;;-5.70;99.90;;;;;;5052120;28;20177;-83
2022/12/18 06:50:27;;;;;;;43.37;28.70;;;-5.50;99.90;;;;;;5047430;28;20657;-83
2022/12/18 06:52:53;;;;;;;42.23;25.50;;;-5.40;99.90;;;;;;5052550;28;20195;-84
2022/12/18 06:55:18;;;;;;;47.87;28.30;;;-5.40;99.90;;;;;;5052481;28;20694;-82
2022/12/18 06:57:44;;;;;;;44.10;27.70;;;-5.50;99.90;;;;;;5051627;28;20208;-83
2022/12/18 07:00:10;;;;;;;43.77;26.13;;;-5.30;99.90;;;;;;5047856;28;20193;-83
2022/12/18 07:02:36;;;;;;;41.40;25.40;;;-5.60;99.90;;;;;;5035725;28;20202;-82
2022/12/18 07:05:02;;;;;;;43.70;26.23;;;-5.80;99.90;;;;;;5046980;28;20228;-83
2022/12/18 07:07:27;;;;;;;45.10;25.93;;;-5.90;99.90;;;;;;5046275;28;20195;-83
2022/12/18 07:09:53;;;;;;;37.77;25.23;;;-6.00;99.90;;;;;;5047886;28;20643;-82
2022/12/18 07:12:19;;;;;;;49.20;28.90;;;-6.00;99.90;;;;;;5061332;28;20662;-83
2022/12/18 07:14:44;;;;;;;53.27;27.50;;;-6.10;99.90;;;;;;5056816;28;20215;-81
2022/12/18 07:17:10;;;;;;;45.07;27.17;;;-6.10;99.90;;;;;;5050462;28;20212;-83
2022/12/18 07:19:36;;;;;;;50.87;28.47;;;-5.90;99.90;;;;;;5052171;28;20338;-82
2022/12/18 07:22:01;;;;;;;50.00;29.23;;;-6.00;99.90;;;;;;5048746;28;20192;-82
2022/12/18 07:24:28;;;;;;;48.50;27.87;;;-6.30;99.90;;;;;;5040554;28;20216;-83
2022/12/18 07:26:53;;;;;;;45.90;28.40;;;-6.30;99.90;;;;;;5048985;28;20226;-83
2022/12/18 07:29:19;;;;;;;50.17;29.83;;;-6.30;99.90;;;;;;5046838;28;20223;-83
2022/12/18 07:31:45;;;;;;;47.63;27.47;;;-6.40;99.90;;;;;;5054310;28;20244;-83
2022/12/18 07:34:15;;;;;;;53.10;28.70;;;-6.20;99.90;;;;;;5057092;28;20674;-84
2022/12/18 07:36:40;;;;;;;49.67;28.93;;;-6.00;99.90;;;;;;5058006;28;20208;-83
2022/12/18 07:39:06;;;;;;;43.93;25.00;;;-6.00;99.90;;;;;;5051650;28;20287;-82
2022/12/18 07:41:32;;;;;;;45.33;26.60;;;-5.90;99.90;;;;;;5053577;28;20192;-81
2022/12/18 07:43:58;;;;;;;51.93;29.70;;;-5.70;99.90;;;;;;5058331;28;20216;-82
2022/12/18 07:46:23;;;;;;;44.80;27.47;;;-5.90;99.90;;;;;;5048898;28;20197;-81
2022/12/18 07:48:49;;;;;;;45.27;27.07;;;-5.80;99.90;;;;;;5054647;28;20253;-84
2022/12/18 07:51:15;;;;;;;51.77;27.70;;;-5.60;99.90;;;;;;5051370;28;20250;-80
2022/12/18 07:53:41;;;;;;;41.03;24.77;;;-5.40;99.90;;;;;;5049775;28;20185;-82
2022/12/18 07:56:09;;;;;;;40.53;25.30;;;-5.30;99.90;;;;;;5054870;28;20208;-82
2022/12/18 07:58:36;;;;;;;43.83;26.57;;;-5.20;99.90;;;;;;5051821;28;20188;-84
2022/12/18 08:01:07;;;;;;;45.93;27.37;;;-5.20;99.90;;;;;;5053293;28;20193;-82
2022/12/18 08:03:33;;;;;;;43.77;27.93;;;-5.40;99.90;;;;;;5050473;28;20596;-82
2022/12/18 08:06:03;;;;;;;46.73;28.57;;;-5.40;99.90;;;;;;5050057;28;20215;-83
2022/12/18 08:08:30;;;;;;;41.70;27.23;;;-5.30;99.90;;;;;;5052526;28;20279;-83
2022/12/18 08:10:57;;;;;;;41.87;26.10;;;-5.10;99.90;;;;;;5052692;28;20191;-83
2022/12/18 08:13:23;;;;;;;42.33;25.23;;;-5.00;99.90;;;;;;5056005;28;20196;-84
2022/12/18 08:16:06;;;;;;;52.33;30.77;;;-5.00;99.90;;;;;;5058329;28;20205;-85
2022/12/18 08:18:37;;;;;;;41.23;25.70;;;-5.00;99.20;;;;;;5059198;28;20207;-84
2022/12/18 08:21:11;;;;;;;43.23;27.83;;;-5.20;99.90;;;;;;5050319;28;20192;-85
2022/12/18 08:23:37;;;;;;;40.47;26.83;;;-5.00;99.90;;;;;;5060676;28;20235;-83
2022/12/18 08:26:03;;;;;;;42.80;25.47;;;-4.90;99.90;;;;;;5054061;28;20209;-83
2022/12/18 08:28:29;;;;;;;47.97;28.40;;;-4.70;99.90;;;;;;5050196;28;20180;-82
2022/12/18 08:30:55;;;;;;;43.33;26.80;;;-4.50;99.20;;;;;;5056902;28;20193;-83
2022/12/18 08:33:20;;;;;;;43.87;28.87;;;-4.50;98.00;;;;;;5059697;28;20199;-85
2022/12/18 08:35:46;;;;;;;48.70;29.60;;;-4.50;97.20;;;;;;5065942;28;20208;-83
2022/12/18 08:38:12;;;;;;;57.25;42.50;;;-4.50;95.80;;;;;;5060727;28;20407;-83
2022/12/18 08:40:37;;;;;;;51.07;33.73;;;-4.80;98.10;;;;;;5044994;28;20199;-83
2022/12/18 08:45:47;;;;;;;46.37;28.87;;;-4.60;98.30;;;;;;5045201;28;20210;-84
2022/12/18 08:48:13;;;;;;;56.40;40.70;;;-4.50;98.70;;;;;;5048107;28;20204;-83
2022/12/18 08:50:38;;;;;;;50.70;36.03;;;-4.70;96.90;;;;;;5050197;28;20325;-83
2022/12/18 08:53:04;;;;;;;46.47;27.47;;;-4.90;99.40;;;;;;5045438;28;20181;-83
2022/12/18 08:55:30;;;;;;;45.23;31.43;;;-4.80;99.40;;;;;;5052810;28;20604;-81
2022/12/18 08:57:55;;;;;;;47.93;28.83;;;-4.80;98.00;;;;;;5050834;28;20189;-82
2022/12/18 09:00:21;;;;;;;46.50;27.33;;;-4.80;98.50;;;;;;5052994;28;20283;-83
2022/12/18 09:02:47;;;;;;;44.77;26.97;;;-5.30;99.90;;;;;;5054533;28;20270;-81
2022/12/18 09:05:12;;;;;;;45.07;29.00;;;-5.40;99.90;;;;;;5043371;28;20224;-84
2022/12/18 09:07:38;;;;;;;47.63;28.70;;;-5.30;99.90;;;;;;5049743;28;20223;-82
2022/12/18 09:10:05;;;;;;;55.10;32.30;;;-5.50;99.90;;;;;;5045951;28;20558;-81
2022/12/18 09:12:31;;;;;;;56.97;35.67;;;-5.70;99.90;;;;;;5043110;28;20219;-82
2022/12/18 09:14:57;;;;;;;49.03;30.23;;;-5.50;99.90;;;;;;5050082;28;20437;-80
2022/12/18 09:17:22;;;;;;;42.97;28.17;;;-5.50;99.90;;;;;;5041020;28;20196;-81
2022/12/18 09:19:48;;;;;;;43.73;28.23;;;-5.50;99.90;;;;;;5046411;28;20196;-82
2022/12/18 09:22:13;;;;;;;47.63;28.33;;;-5.30;99.90;;;;;;5054011;28;20196;-84
2022/12/18 09:24:39;;;;;;;44.73;26.40;;;-5.10;99.90;;;;;;5053804;28;20216;-84
2022/12/18 09:27:05;;;;;;;46.70;27.37;;;-5.30;99.90;;;;;;5050770;28;20219;-83
2022/12/18 09:29:31;;;;;;;41.93;25.63;;;-5.20;99.90;;;;;;5056442;28;20191;-82
2022/12/18 09:31:57;;;;;;;42.60;26.33;;;-5.00;99.90;;;;;;5047590;28;20192;-83
2022/12/18 09:34:23;;;;;;;46.03;26.70;;;-4.90;99.90;;;;;;5047707;28;20196;-82
2022/12/18 09:36:50;;;;;;;46.33;25.77;;;-4.70;99.50;;;;;;5049650;28;20265;-84
2022/12/18 09:39:15;;;;;;;43.70;27.53;;;-4.70;99.30;;;;;;5050649;28;20202;-83
2022/12/18 09:41:53;;;;;;;45.67;26.47;;;-4.60;99.00;;;;;;5048940;28;20335;-83
2022/12/18 09:44:27;;;;;;;41.50;25.13;;;-4.50;98.50;;;;;;5032280;28;20235;-84
2022/12/18 09:47:12;;;;;;;44.70;28.27;;;-4.50;97.80;;;;;;5047882;28;20313;-84
2022/12/18 09:49:42;;;;;;;41.23;27.93;;;-4.40;97.70;;;;;;5045947;28;20176;-85
2022/12/18 09:52:30;;;;;;;43.57;26.93;;;-4.40;97.50;;;;;;5061550;28;20185;-83
2022/12/18 09:55:11;;;;;;;44.00;27.47;;;-4.40;97.80;;;;;;5061774;28;20180;-84
2022/12/18 09:57:45;;;;;;;43.93;27.80;;;-4.70;97.70;;;;;;5064780;28;20181;-83
2022/12/18 10:00:20;;;;;;;47.10;27.53;;;-4.80;98.30;;;;;;5053701;28;20259;-83
2022/12/18 10:02:46;;;;;;;45.47;27.63;;;-4.90;99.70;;;;;;5049346;28;20180;-80
2022/12/18 10:05:27;;;;;;;52.10;30.63;;;-5.20;99.90;;;;;;5053129;28;20250;-82
2022/12/18 10:08:08;;;;;;;46.07;27.50;;;-5.40;99.90;;;;;;5056074;28;20199;-84
2022/12/18 10:10:57;;;;;;;44.10;27.10;;;-5.60;99.90;;;;;;5050040;28;20185;-83
2022/12/18 10:13:39;;;;;;;44.47;26.40;;;-5.30;99.90;;;;;;5048452;28;20199;-82
2022/12/18 10:16:27;;;;;;;44.73;27.00;;;-5.70;99.90;;;;;;5045930;28;20222;-83
2022/12/18 10:19:11;;;;;;;44.77;27.07;;;-5.90;99.90;;;;;;5050827;28;20220;-82
2022/12/18 10:21:49;;;;;;;41.83;25.33;;;-5.70;99.90;;;;;;5033560;28;20748;-83
2022/12/18 10:24:32;;;;;;;44.40;25.27;;;-5.70;99.90;;;;;;5038005;28;20214;-83
2022/12/18 10:27:11;;;;;;;43.90;27.57;;;-5.50;99.90;;;;;;5036225;28;20216;-82
2022/12/18 10:29:37;;;;;;;46.93;25.93;;;-5.40;99.90;;;;;;5038469;28;20183;-81
2022/12/18 10:32:03;;;;;;;42.53;26.47;;;-5.50;99.90;;;;;;5039110;28;20188;-82
2022/12/18 10:34:29;;;;;;;52.60;27.97;;;-5.60;99.90;;;;;;5037114;28;20808;-85
2022/12/18 10:36:54;;;;;;;44.10;27.03;;;-5.50;99.90;;;;;;5040686;28;20207;-82
2022/12/18 10:39:23;;;;;;;50.33;29.20;;;-5.40;99.90;;;;;;5037717;28;20195;-82
2022/12/18 10:42:08;;;;;;;43.30;26.17;;;-5.40;99.90;;;;;;5037908;28;20200;-83
2022/12/18 10:44:34;;;;;;;40.33;25.53;;;-5.00;99.90;;;;;;5037164;28;20208;-84
2022/12/18 10:47:06;;;;;;;41.53;26.93;;;-4.80;99.90;;;;;;5041407;28;20204;-81
2022/12/18 10:49:34;;;;;;;42.37;27.10;;;-4.60;99.90;;;;;;5022226;28;20673;-82
2022/12/18 10:52:21;;;;;;;46.40;27.43;;;-4.80;99.90;;;;;;5038568;28;20254;-83
2022/12/18 10:55:15;;;;;;;50.13;27.27;;;-4.70;99.90;;;;;;5036895;28;20585;-82
2022/12/18 10:57:41;;;;;;;44.40;27.13;;;-4.40;99.60;;;;;;5037315;28;20317;-83
2022/12/18 11:00:27;;;;;;;52.17;29.67;;;-4.30;98.20;;;;;;5037803;28;20275;-82
2022/12/18 11:02:54;;;;;;;41.70;27.00;;;-4.40;97.90;;;;;;5038340;28;21057;-82
2022/12/18 11:05:33;;;;;;;46.73;27.50;;;-4.40;98.60;;;;;;5037654;28;20604;-84
2022/12/18 11:08:00;;;;;;;46.53;26.37;;;-4.40;98.40;;;;;;5042087;28;20557;-85
2022/12/18 11:10:32;;;;;;;42.70;27.17;;;-4.40;99.00;;;;;;5038794;28;20541;-82
2022/12/18 11:13:22;;;;;;;48.67;28.67;;;-4.30;98.00;;;;;;5042177;28;20183;-83
2022/12/18 11:15:49;;;;;;;40.00;25.47;;;-4.60;99.00;;;;;;5011745;28;20224;-83
2022/12/18 11:18:26;;;;;;;37.60;24.93;;;-4.40;99.60;;;;;;5042225;28;20234;-84
2022/12/18 11:21:00;;;;;;;45.40;26.80;;;-4.30;98.60;;;;;;5040590;28;20188;-83
2022/12/18 11:23:27;;;;;;;42.43;25.87;;;-4.20;97.60;;;;;;5039660;28;20274;-84
2022/12/18 11:25:59;;;;;;;38.57;22.90;;;-4.20;97.90;;;;;;5022661;28;20790;-82
2022/12/18 11:28:41;;;;;;;40.57;25.80;;;-4.20;98.50;;;;;;5041928;28;20724;-84
2022/12/18 11:31:27;;;;;;;38.93;26.70;;;-4.40;98.90;;;;;;5044930;28;20187;-84
2022/12/18 11:33:55;;;;;;;43.00;27.03;;;-4.50;99.60;;;;;;5043209;28;20330;-84
2022/12/18 11:36:22;;;;;;;42.83;27.60;;;-4.60;99.90;;;;;;5041924;28;20215;-83
2022/12/18 11:38:50;;;;;;;55.03;32.13;;;-4.50;99.90;;;;;;5045645;28;20203;-85
2022/12/18 11:41:16;;;;;;;49.50;34.67;;;-4.50;99.90;;;;;;5045603;28;20271;-84
2022/12/18 11:43:57;;;;;;;49.57;29.80;;;-4.50;99.90;;;;;;5041407;28;20232;-83
2022/12/18 11:46:32;;;;;;;45.77;28.90;;;-4.30;99.90;;;;;;5041898;28;20342;-84
2022/12/18 11:49:01;;;;;;;45.87;27.07;;;-4.10;99.90;;;;;;5045974;28;20206;-84
2022/12/18 11:51:37;;;;;;;42.27;28.23;;;-4.10;99.30;;;;;;5045684;28;20189;-82
2022/12/18 11:54:15;;;;;;;46.33;29.40;;;-4.00;99.30;;;;;;5042590;28;20180;-83
2022/12/18 11:56:49;;;;;;;46.77;29.17;;;-3.90;98.90;;;;;;5041995;28;20216;-84
2022/12/18 11:59:20;;;;;;;45.77;27.77;;;-4.10;99.70;;;;;;5044859;28;20279;-82
2022/12/18 12:01:45;;;;;;;49.73;30.77;;;-3.90;99.90;;;;;;5045495;28;20188;-81
2022/12/18 12:04:27;;;;;;;46.37;29.73;;;-3.90;99.00;;;;;;5042539;28;20211;-84
2022/12/18 12:07:05;;;;;;;46.70;26.57;;;-3.90;99.60;;;;;;5043798;28;20293;-82
2022/12/18 12:09:30;;;;;;;39.73;27.67;;;-3.70;99.10;;;;;;5040686;28;20229;-82
2022/12/18 12:12:20;;;;;;;40.97;28.57;;;-3.50;98.00;;;;;;5043350;28;20743;-81
2022/12/18 12:14:45;;;;;;;55.57;37.97;;;-3.30;96.70;;;;;;5042946;28;20192;-83
2022/12/18 12:17:24;;;;;;;49.10;34.67;;;-3.40;95.60;;;;;;5044355;28;20282;-83
2022/12/18 12:20:16;;;;;;;51.70;30.57;;;-3.40;95.60;;;;;;5041158;28;20189;-82
2022/12/18 12:23:00;;;;;;;49.43;29.20;;;-3.40;96.00;;;;;;5041894;28;20234;-84
2022/12/18 12:25:45;;;;;;;55.00;31.83;;;-3.30;95.50;;;;;;5034906;28;20221;-83
2022/12/18 12:28:22;;;;;;;52.90;32.00;;;-3.30;95.10;;;;;;5042246;28;20188;-82
2022/12/18 12:30:51;;;;;;;46.30;31.50;;;-3.40;95.30;;;;;;5043400;28;20246;-83
2022/12/18 12:33:35;;;;;;;51.13;31.03;;;-3.50;96.30;;;;;;5045323;28;20279;-82
2022/12/18 12:36:21;;;;;;;52.07;32.70;;;-3.40;97.00;;;;;;5044547;28;20238;-83
2022/12/18 12:39:01;;;;;;;45.10;29.23;;;-3.30;96.80;;;;;;5045766;28;20184;-83
2022/12/18 12:44:29;;;;;;;51.93;32.20;;;-3.30;96.00;;;;;;5039981;28;20215;-83
2022/12/18 12:47:00;;;;;;;48.03;33.53;;;-3.20;96.70;;;;;;5039909;28;20257;-84
2022/12/18 12:49:33;;;;;;;50.10;31.77;;;-3.30;96.00;;;;;;5045701;28;20192;-84
2022/12/18 12:52:17;;;;;;;53.13;32.30;;;-3.30;96.90;;;;;;5047260;28;20184;-81
2022/12/18 12:54:44;;;;;;;48.97;30.57;;;-3.20;96.30;;;;;;5043141;28;20200;-83